Time;durP1;ratioP1;P1;durP2;ratioP2;P2;SDS_P1;SDS_P2;PMS_P1;PMS_P2;Temp;Humidity;BMP_temperature;BMP_pressure;BME280_temperature;BME280_humidity;BME280_pressure;Samples;Min_cycle;Max_cycle;Signal;HPM_P1;HPM_P2
2023/06/09 00:00:21;;;;;;;10.63;3.63;;;12.50;99.90;;;;;;4956441;29;20102;-78
2023/06/09 00:02:50;;;;;;;20.52;4.18;;;12.50;99.90;;;;;;4957233;28;20055;-78
2023/06/09 00:05:20;;;;;;;10.38;3.75;;;12.40;99.90;;;;;;4956352;28;20130;-78
2023/06/09 00:07:48;;;;;;;10.07;4.05;;;12.40;99.90;;;;;;4957105;28;20053;-78
2023/06/09 00:10:15;;;;;;;9.73;3.40;;;12.40;99.90;;;;;;4956396;28;20133;-78
2023/06/09 00:12:42;;;;;;;16.63;3.90;;;12.40;99.90;;;;;;4957042;29;20359;-77
2023/06/09 00:18:15;;;;;;;10.00;3.08;;;12.40;99.90;;;;;;4956473;29;20093;-77
2023/06/09 00:20:42;;;;;;;7.38;3.17;;;12.40;99.90;;;;;;4956904;28;20043;-78
2023/06/09 00:23:09;;;;;;;14.10;4.20;;;12.40;99.90;;;;;;4957290;29;20426;-78
2023/06/09 00:28:21;;;;;;;15.10;3.30;;;12.30;99.90;;;;;;4956915;29;20126;-78
2023/06/09 00:30:48;;;;;;;11.05;3.80;;;12.40;99.90;;;;;;4954766;29;20122;-78
2023/06/09 00:33:14;;;;;;;12.65;4.60;;;12.50;99.90;;;;;;4957603;29;20075;-78
2023/06/09 00:35:41;;;;;;;23.75;4.25;;;12.50;99.90;;;;;;4940625;29;20473;-78
2023/06/09 00:38:08;;;;;;;14.60;4.32;;;12.50;99.90;;;;;;4955151;29;20412;-79
2023/06/09 00:40:34;;;;;;;13.45;3.55;;;12.60;99.90;;;;;;4940082;29;20055;-79
2023/06/09 00:43:01;;;;;;;11.30;3.95;;;12.60;99.90;;;;;;4955963;29;20094;-79
2023/06/09 00:45:29;;;;;;;11.45;3.60;;;12.60;99.90;;;;;;4955076;28;20111;-78
2023/06/09 00:47:56;;;;;;;16.40;4.50;;;12.60;99.90;;;;;;4956411;29;20046;-79
2023/06/09 00:50:23;;;;;;;12.95;3.70;;;12.70;99.90;;;;;;4939104;29;20134;-78
2023/06/09 00:52:51;;;;;;;15.35;4.03;;;12.70;99.90;;;;;;4939859;29;20055;-78
2023/06/09 00:55:21;;;;;;;19.17;4.53;;;12.80;99.90;;;;;;4956931;28;20039;-78
2023/06/09 00:57:48;;;;;;;16.02;4.28;;;12.70;99.90;;;;;;4956038;28;20047;-78
2023/06/09 01:00:16;;;;;;;19.67;4.70;;;12.70;99.90;;;;;;4955576;29;20055;-77
2023/06/09 01:02:43;;;;;;;18.77;4.55;;;12.70;99.90;;;;;;4955853;29;20358;-78
2023/06/09 01:05:12;;;;;;;15.90;4.63;;;12.70;99.90;;;;;;4955064;29;20039;-78
2023/06/09 01:07:40;;;;;;;17.88;4.72;;;12.70;99.90;;;;;;4956676;28;20122;-78
2023/06/09 01:10:08;;;;;;;16.10;4.00;;;12.80;99.90;;;;;;4955735;28;20509;-78
2023/06/09 01:12:35;;;;;;;23.55;4.25;;;12.80;99.90;;;;;;4956716;28;20048;-79
2023/06/09 01:15:02;;;;;;;13.75;4.35;;;12.90;99.90;;;;;;4956532;28;20047;-77
2023/06/09 01:17:29;;;;;;;22.00;5.35;;;12.90;99.90;;;;;;4954824;29;20130;-78
2023/06/09 01:19:57;;;;;;;16.95;3.95;;;12.80;99.90;;;;;;4956452;28;20059;-78
2023/06/09 01:22:25;;;;;;;17.30;5.25;;;12.90;99.90;;;;;;4956578;28;20051;-80
2023/06/09 01:24:52;;;;;;;19.05;4.40;;;12.90;99.90;;;;;;4954869;29;20126;-77
2023/06/09 01:27:21;;;;;;;22.95;4.72;;;12.90;99.90;;;;;;4939755;29;20047;-78
2023/06/09 01:29:51;;;;;;;21.45;5.15;;;12.80;99.90;;;;;;4956125;28;20055;-77
2023/06/09 01:32:19;;;;;;;31.23;4.32;;;12.80;99.90;;;;;;4954369;29;20081;-77
2023/06/09 01:34:46;;;;;;;24.25;4.63;;;12.80;99.90;;;;;;4955409;29;20450;-78
2023/06/09 01:37:12;;;;;;;20.92;5.05;;;12.80;99.90;;;;;;4955375;28;20508;-78
2023/06/09 01:39:39;;;;;;;17.13;3.92;;;12.80;99.90;;;;;;4956099;29;20168;-78
2023/06/09 01:42:06;;;;;;;24.58;5.03;;;12.80;99.90;;;;;;4955855;29;20043;-77
2023/06/09 01:44:33;;;;;;;20.95;4.35;;;12.80;99.90;;;;;;4955175;29;20051;-78
2023/06/09 01:47:00;;;;;;;20.50;5.07;;;12.90;99.90;;;;;;4956165;29;20110;-78
2023/06/09 01:49:27;;;;;;;22.25;4.80;;;12.90;99.90;;;;;;4955956;29;20065;-78
2023/06/09 01:51:54;;;;;;;20.75;5.00;;;12.90;99.90;;;;;;4955270;29;20047;-78
2023/06/09 01:54:22;;;;;;;21.48;5.68;;;12.90;99.90;;;;;;4956811;28;20074;-78
2023/06/09 01:56:48;;;;;;;17.20;4.90;;;12.90;99.90;;;;;;4957683;29;20179;-77
2023/06/09 01:59:15;;;;;;;20.85;4.47;;;12.90;99.90;;;;;;4958578;29;20058;-78
2023/06/09 02:01:42;;;;;;;24.38;4.95;;;12.90;99.90;;;;;;4958709;29;20130;-78
2023/06/09 02:04:10;;;;;;;21.20;4.38;;;12.90;99.90;;;;;;4958807;28;20043;-78
2023/06/09 02:06:37;;;;;;;15.73;4.15;;;12.90;99.90;;;;;;4958265;29;20043;-78
2023/06/09 02:09:06;;;;;;;20.40;4.22;;;12.90;99.90;;;;;;4958101;29;20047;-78
2023/06/09 02:11:34;;;;;;;19.73;4.22;;;12.90;99.90;;;;;;4957945;29;20062;-79
2023/06/09 02:14:01;;;;;;;18.48;5.03;;;12.90;99.90;;;;;;4959468;29;20043;-79
2023/06/09 02:16:28;;;;;;;24.90;4.47;;;12.90;99.90;;;;;;4958628;29;20352;-78
2023/06/09 02:18:56;;;;;;;19.58;4.57;;;12.90;99.90;;;;;;4958179;29;20537;-80
2023/06/09 02:21:22;;;;;;;20.55;5.72;;;13.00;99.90;;;;;;4942883;29;20363;-78
2023/06/09 02:23:50;;;;;;;18.38;5.03;;;12.90;99.90;;;;;;4973670;28;20047;-78
2023/06/09 02:26:17;;;;;;;22.58;4.15;;;12.90;99.90;;;;;;4959110;28;20043;-78
2023/06/09 02:28:44;;;;;;;19.83;4.55;;;13.00;99.90;;;;;;4973808;28;20395;-78
2023/06/09 02:31:11;;;;;;;19.35;4.60;;;12.90;99.90;;;;;;4973426;28;20130;-78
2023/06/09 02:33:38;;;;;;;17.33;3.88;;;12.90;99.90;;;;;;4959307;28;20062;-79
2023/06/09 02:36:05;;;;;;;16.38;4.55;;;13.00;99.90;;;;;;4974257;28;20047;-78
2023/06/09 02:38:32;;;;;;;19.85;4.43;;;13.00;99.90;;;;;;4973149;28;20469;-78
2023/06/09 02:40:59;;;;;;;26.63;4.28;;;13.00;99.90;;;;;;4958354;29;20051;-78
2023/06/09 02:43:26;;;;;;;16.35;4.50;;;13.00;99.90;;;;;;4957155;29;20434;-78
2023/06/09 02:45:54;;;;;;;20.63;5.38;;;13.00;99.90;;;;;;4974090;28;20110;-78
2023/06/09 02:48:21;;;;;;;14.30;3.88;;;12.90;99.90;;;;;;4957548;29;20043;-78
2023/06/09 02:50:48;;;;;;;24.38;4.88;;;13.00;99.90;;;;;;4958009;28;20057;-79
2023/06/09 02:53:16;;;;;;;14.02;5.05;;;13.00;99.90;;;;;;4957634;29;20043;-78
2023/06/09 02:55:45;;;;;;;26.40;4.63;;;13.00;99.90;;;;;;4974200;28;20540;-78
2023/06/09 02:58:18;;;;;;;21.65;5.18;;;13.00;99.90;;;;;;4956855;29;20047;-78
2023/06/09 03:00:49;;;;;;;19.52;4.80;;;12.90;99.90;;;;;;4957665;29;20039;-79
2023/06/09 03:03:17;;;;;;;19.50;4.80;;;12.90;99.90;;;;;;4973114;28;20078;-78
2023/06/09 03:05:47;;;;;;;17.38;4.35;;;12.90;99.90;;;;;;4973139;28;20043;-78
2023/06/09 03:08:14;;;;;;;23.92;4.90;;;12.90;99.90;;;;;;4973437;28;20359;-79
2023/06/09 03:10:42;;;;;;;20.77;4.70;;;13.00;99.90;;;;;;4957126;29;20043;-78
2023/06/09 03:13:12;;;;;;;14.55;4.05;;;13.00;99.90;;;;;;4973280;28;20102;-79
2023/06/09 03:15:44;;;;;;;;;;;12.90;99.90;;;;;;4957591;29;20047;-79
2023/06/09 03:18:13;;;;;;;21.25;4.63;;;12.90;99.90;;;;;;4956752;29;19923;-77
2023/06/09 03:20:42;;;;;;;15.00;4.20;;;12.90;99.90;;;;;;4971613;28;20078;-78
2023/06/09 03:23:10;;;;;;;23.65;4.82;;;12.90;99.90;;;;;;4941785;29;20126;-78
2023/06/09 03:25:42;;;;;;;21.15;4.55;;;12.90;99.90;;;;;;4941253;29;20421;-78
2023/06/09 03:28:12;;;;;;;15.38;5.22;;;12.90;99.90;;;;;;4956723;29;20466;-78
2023/06/09 03:30:40;;;;;;;21.92;4.65;;;12.90;99.90;;;;;;4956396;29;20043;-79
2023/06/09 03:33:08;;;;;;;22.00;5.07;;;12.90;99.90;;;;;;4956766;29;20058;-78
2023/06/09 03:35:36;;;;;;;19.42;4.30;;;12.90;99.90;;;;;;4956728;29;20048;-78
2023/06/09 03:38:03;;;;;;;18.30;3.97;;;12.80;99.90;;;;;;4956231;29;20058;-79
2023/06/09 03:40:30;;;;;;;16.27;4.43;;;12.80;99.90;;;;;;4941080;29;20051;-78
2023/06/09 03:42:58;;;;;;;21.63;4.65;;;12.80;99.90;;;;;;4956878;29;20060;-78
2023/06/09 03:45:25;;;;;;;14.18;4.25;;;12.70;99.90;;;;;;4955853;29;20047;-77
2023/06/09 03:47:52;;;;;;;18.17;4.45;;;12.80;99.90;;;;;;4957965;29;20035;-77
2023/06/09 03:50:20;;;;;;;23.67;4.47;;;12.80;99.90;;;;;;4956507;28;20039;-77
2023/06/09 03:52:47;;;;;;;12.32;3.70;;;12.70;99.90;;;;;;4956654;29;20035;-78
2023/06/09 03:58:02;;;;;;;14.18;3.22;;;12.80;99.90;;;;;;4955467;29;20055;-79
2023/06/09 04:00:30;;;;;;;15.88;3.50;;;12.70;99.90;;;;;;4956372;29;20126;-78
2023/06/09 04:02:59;;;;;;;16.83;3.88;;;12.80;99.90;;;;;;4941279;29;20043;-78
2023/06/09 04:05:28;;;;;;;13.55;3.80;;;12.80;99.90;;;;;;4955895;29;20473;-78
2023/06/09 04:07:55;;;;;;;14.70;3.92;;;12.80;99.90;;;;;;4956499;29;20051;-78
2023/06/09 04:10:22;;;;;;;22.88;4.20;;;12.70;99.90;;;;;;4955185;29;20054;-79
2023/06/09 04:12:49;;;;;;;16.35;4.22;;;12.70;99.90;;;;;;4940465;29;20043;-78
2023/06/09 04:15:18;;;;;;;15.85;4.25;;;12.70;99.90;;;;;;4956192;29;20067;-78
2023/06/09 04:17:49;;;;;;;;;;;12.70;99.90;;;;;;4955434;28;20479;-79
2023/06/09 04:20:22;;;;;;;17.15;4.10;;;12.70;99.90;;;;;;4938760;29;19929;-78
2023/06/09 04:22:50;;;;;;;20.65;3.90;;;12.70;99.90;;;;;;4956463;29;20039;-78
2023/06/09 04:25:25;;;;;;;;;;;12.60;99.90;;;;;;4940462;29;20067;-78
2023/06/09 04:27:56;;;;;;;22.92;4.97;;;12.70;99.90;;;;;;4940617;29;20194;-78
2023/06/09 04:30:29;;;;;;;15.73;4.50;;;12.70;99.90;;;;;;4954921;29;20047;-78
2023/06/09 04:33:04;;;;;;;21.83;4.65;;;12.80;99.90;;;;;;4955997;29;20461;-78
2023/06/09 04:35:31;;;;;;;20.00;4.47;;;12.70;99.90;;;;;;4955431;29;20058;-78
2023/06/09 04:38:03;;;;;;;19.90;3.70;;;12.70;99.90;;;;;;4939040;29;20130;-77
2023/06/09 04:40:32;;;;;;;17.85;3.60;;;12.70;99.90;;;;;;4955851;29;20071;-78
2023/06/09 04:43:01;;;;;;;16.27;4.22;;;12.80;99.90;;;;;;4955795;29;20130;-77
2023/06/09 04:45:34;;;;;;;25.15;4.45;;;12.80;99.90;;;;;;4954898;29;20049;-78
2023/06/09 04:48:07;;;;;;;17.02;4.40;;;12.80;99.90;;;;;;4955876;29;20047;-78
2023/06/09 04:50:35;;;;;;;25.25;3.60;;;12.80;99.90;;;;;;4955681;29;20462;-78
2023/06/09 04:53:07;;;;;;;16.77;4.05;;;12.80;99.90;;;;;;4940225;29;20381;-78
2023/06/09 04:55:43;;;;;;;19.17;3.65;;;12.90;99.90;;;;;;4955650;29;20047;-77
2023/06/09 04:58:15;;;;;;;21.90;4.47;;;12.70;99.90;;;;;;4954893;29;20055;-77
2023/06/09 05:00:42;;;;;;;25.55;4.88;;;12.80;99.90;;;;;;4955950;29;20126;-79
2023/06/09 05:03:13;;;;;;;26.02;4.50;;;12.80;99.90;;;;;;4956105;29;20077;-79
2023/06/09 05:05:41;;;;;;;19.83;4.63;;;12.80;99.90;;;;;;4939489;29;20142;-79
2023/06/09 05:08:08;;;;;;;17.08;3.92;;;12.80;99.90;;;;;;4939922;29;20039;-80
2023/06/09 05:10:36;;;;;;;19.08;3.83;;;12.90;99.90;;;;;;4955082;29;20134;-79
2023/06/09 05:13:04;;;;;;;15.05;4.38;;;12.90;99.90;;;;;;4940392;29;20482;-77
2023/06/09 05:15:35;;;;;;;18.65;3.95;;;13.00;99.90;;;;;;4956131;29;20043;-78
2023/06/09 05:18:03;;;;;;;23.55;4.93;;;12.90;99.90;;;;;;4954767;29;20470;-78
2023/06/09 05:20:29;;;;;;;21.63;4.38;;;12.90;99.90;;;;;;4955755;29;20451;-78
2023/06/09 05:22:56;;;;;;;13.13;3.38;;;13.00;99.90;;;;;;4971479;28;20050;-78
2023/06/09 05:28:10;;;;;;;20.58;4.88;;;13.10;99.90;;;;;;4955129;28;20058;-77
2023/06/09 05:30:36;;;;;;;16.10;3.97;;;13.10;99.90;;;;;;4974784;28;20367;-78
2023/06/09 05:33:03;;;;;;;22.10;5.40;;;13.10;99.90;;;;;;4959385;29;20058;-78
2023/06/09 05:35:31;;;;;;;19.73;4.38;;;13.10;99.90;;;;;;4958884;29;20070;-78
2023/06/09 05:37:58;;;;;;;24.25;5.22;;;13.10;99.90;;;;;;4959312;28;20071;-78
2023/06/09 05:40:26;;;;;;;21.52;4.50;;;13.10;99.90;;;;;;4974925;28;20497;-78
2023/06/09 05:42:53;;;;;;;19.55;4.15;;;13.00;99.90;;;;;;4960171;29;20055;-78
2023/06/09 05:45:20;;;;;;;22.38;4.90;;;13.10;99.90;;;;;;4974115;28;20044;-78
2023/06/09 05:47:48;;;;;;;19.48;4.97;;;13.10;99.90;;;;;;4959707;29;20043;-79
2023/06/09 05:50:15;;;;;;;23.23;4.22;;;13.20;99.90;;;;;;4959153;28;20047;-78
2023/06/09 05:52:42;;;;;;;22.77;5.75;;;13.20;99.90;;;;;;4959417;29;20113;-78
2023/06/09 05:55:09;;;;;;;18.15;5.18;;;13.20;99.90;;;;;;4959511;29;20106;-79
2023/06/09 05:57:36;;;;;;;13.93;4.13;;;13.20;99.90;;;;;;4959217;28;20344;-78
2023/06/09 06:00:07;;;;;;;22.13;5.20;;;13.20;99.90;;;;;;4974664;28;20050;-78
2023/06/09 06:02:38;;;;;;;18.63;5.05;;;13.10;99.90;;;;;;4960155;28;20166;-77
2023/06/09 06:05:06;;;;;;;21.30;5.05;;;13.20;99.90;;;;;;4958738;29;20043;-78
2023/06/09 06:07:33;;;;;;;19.90;5.32;;;13.20;99.90;;;;;;4959373;28;20071;-78
2023/06/09 06:09:59;;;;;;;20.60;5.03;;;13.20;99.90;;;;;;4973549;28;20035;-78
2023/06/09 06:12:26;;;;;;;19.63;5.38;;;13.30;99.90;;;;;;4959530;28;20051;-78
2023/06/09 06:14:54;;;;;;;22.17;5.75;;;13.20;99.90;;;;;;4959061;29;20454;-79
2023/06/09 06:17:21;;;;;;;20.83;6.35;;;13.30;99.90;;;;;;4958341;28;20126;-79
2023/06/09 06:19:47;;;;;;;24.45;5.38;;;13.30;99.90;;;;;;4958799;29;20078;-78
2023/06/09 06:22:14;;;;;;;20.05;5.50;;;13.30;99.90;;;;;;4960058;28;20085;-78
2023/06/09 06:24:41;;;;;;;23.90;5.28;;;13.40;99.90;;;;;;4958448;29;20051;-78
2023/06/09 06:27:08;;;;;;;18.80;5.25;;;13.50;99.90;;;;;;4959463;29;20043;-78
2023/06/09 06:29:38;;;;;;;31.75;7.63;;;13.50;99.90;;;;;;4957600;29;20121;-78
2023/06/09 06:32:05;;;;;;;21.67;6.05;;;13.60;99.90;;;;;;4957023;29;20051;-78
2023/06/09 06:34:34;;;;;;;31.13;7.53;;;13.70;99.90;;;;;;4959150;29;20054;-77
2023/06/09 06:37:01;;;;;;;22.08;6.65;;;13.80;99.90;;;;;;4958254;29;20114;-77
2023/06/09 06:39:28;;;;;;;29.45;6.88;;;13.80;99.90;;;;;;4958226;28;20078;-78
2023/06/09 06:41:54;;;;;;;22.67;6.07;;;13.90;99.90;;;;;;4958801;28;20106;-78
2023/06/09 06:44:27;;;;;;;;;;;14.00;99.90;;;;;;4957404;29;20054;-78
2023/06/09 06:46:53;;;;;;;25.10;6.90;;;14.00;99.90;;;;;;4958556;29;19923;-78
2023/06/09 06:49:20;;;;;;;23.77;5.65;;;13.90;99.90;;;;;;4958404;29;20035;-78
2023/06/09 06:51:47;;;;;;;25.80;5.45;;;14.00;99.90;;;;;;4956847;29;20047;-78
2023/06/09 06:54:14;;;;;;;25.05;4.88;;;14.10;99.90;;;;;;4958071;28;20102;-77
2023/06/09 06:56:43;;;;;;;24.27;5.68;;;14.20;99.90;;;;;;4956944;29;20368;-77
2023/06/09 06:59:10;;;;;;;20.05;5.10;;;14.30;99.90;;;;;;4956939;29;20071;-77
2023/06/09 07:01:38;;;;;;;15.93;4.88;;;14.30;99.90;;;;;;4958339;28;20047;-78
2023/06/09 07:04:05;;;;;;;22.52;6.22;;;14.40;99.90;;;;;;4957649;28;20055;-77
2023/06/09 07:06:33;;;;;;;24.25;5.35;;;14.50;99.90;;;;;;4958145;28;20039;-78
2023/06/09 07:09:00;;;;;;;24.48;6.18;;;14.50;99.90;;;;;;4958038;28;20047;-77
2023/06/09 07:11:32;;;;;;;20.23;5.70;;;14.60;99.90;;;;;;4972140;28;20050;-77
2023/06/09 07:13:59;;;;;;;23.77;5.30;;;14.70;99.90;;;;;;4956993;29;20050;-78
2023/06/09 07:16:26;;;;;;;20.17;6.43;;;14.80;99.90;;;;;;4957661;29;20146;-77
2023/06/09 07:18:52;;;;;;;26.73;6.18;;;14.90;99.90;;;;;;4956939;28;20074;-77
2023/06/09 07:21:19;;;;;;;18.45;5.35;;;15.00;99.90;;;;;;4958079;28;20362;-77
2023/06/09 07:23:47;;;;;;;27.23;6.22;;;15.10;99.90;;;;;;4957078;29;20461;-78
2023/06/09 07:26:14;;;;;;;20.73;6.57;;;15.10;99.90;;;;;;4956300;29;20410;-78
2023/06/09 07:28:41;;;;;;;17.10;5.40;;;15.20;99.90;;;;;;4972146;28;20051;-78
2023/06/09 07:31:08;;;;;;;27.67;5.93;;;15.40;99.90;;;;;;4956023;29;20470;-78
2023/06/09 07:33:34;;;;;;;18.80;5.75;;;15.50;99.90;;;;;;4957047;29;20039;-78
2023/06/09 07:36:02;;;;;;;24.65;5.65;;;15.70;99.90;;;;;;4937409;29;20349;-78
2023/06/09 07:38:29;;;;;;;17.80;5.20;;;15.80;99.90;;;;;;4937978;29;20430;-78
2023/06/09 07:40:55;;;;;;;24.52;5.70;;;15.90;99.90;;;;;;4938418;29;20043;-78
2023/06/09 07:43:23;;;;;;;20.88;5.55;;;16.00;99.90;;;;;;4936667;29;20144;-77
2023/06/09 07:45:51;;;;;;;27.55;5.78;;;16.20;99.90;;;;;;4938110;29;20511;-77
2023/06/09 07:48:17;;;;;;;19.13;5.43;;;16.30;99.90;;;;;;4946702;29;20122;-77
2023/06/09 07:50:45;;;;;;;32.85;6.03;;;16.50;99.90;;;;;;4955244;28;20047;-78
2023/06/09 07:53:27;;;;;;;20.90;5.28;;;16.60;99.90;;;;;;4950536;29;20364;-77
2023/06/09 07:55:56;;;;;;;20.92;5.40;;;16.60;99.90;;;;;;4954222;29;20046;-77
2023/06/09 07:58:23;;;;;;;16.88;5.47;;;16.70;99.90;;;;;;4942859;29;20141;-77
2023/06/09 08:00:51;;;;;;;20.80;5.53;;;16.80;99.90;;;;;;4972086;28;20050;-77
2023/06/09 08:03:17;;;;;;;19.33;5.20;;;17.00;99.90;;;;;;4955932;28;20525;-78
2023/06/09 08:05:45;;;;;;;25.20;6.53;;;17.20;99.90;;;;;;4956870;28;20470;-78
2023/06/09 08:08:12;;;;;;;20.52;6.20;;;17.50;99.90;;;;;;4952171;29;20378;-77
2023/06/09 08:10:38;;;;;;;16.27;5.32;;;17.50;99.90;;;;;;4955992;28;20089;-78
2023/06/09 08:13:05;;;;;;;16.85;5.00;;;17.60;99.90;;;;;;4957330;28;20118;-77
2023/06/09 08:15:36;;;;;;;17.90;5.72;;;17.80;99.90;;;;;;4957579;28;20394;-78
2023/06/09 08:18:03;;;;;;;19.83;5.70;;;18.00;99.90;;;;;;4954794;28;20624;-78
2023/06/09 08:20:30;;;;;;;27.27;5.30;;;18.10;99.90;;;;;;4956139;29;20054;-78
2023/06/09 08:22:57;;;;;;;22.15;6.07;;;18.20;99.90;;;;;;4955865;29;20047;-77
2023/06/09 08:25:25;;;;;;;20.52;5.35;;;18.40;99.90;;;;;;4948751;29;20051;-78
2023/06/09 08:27:52;;;;;;;17.52;5.97;;;18.60;99.90;;;;;;4970659;28;20039;-78
2023/06/09 08:30:18;;;;;;;23.00;5.60;;;18.70;99.90;;;;;;4950034;29;20041;-78
2023/06/09 08:32:46;;;;;;;18.52;5.50;;;18.60;99.90;;;;;;4954139;29;20043;-78
2023/06/09 08:35:13;;;;;;;23.50;5.90;;;18.80;99.90;;;;;;4954969;29;20035;-78
2023/06/09 08:37:41;;;;;;;16.98;5.95;;;19.00;99.90;;;;;;4954994;28;20470;-78
2023/06/09 08:40:08;;;;;;;22.88;6.15;;;19.20;99.90;;;;;;4970539;28;20049;-78
2023/06/09 08:42:36;;;;;;;19.45;5.47;;;19.10;99.90;;;;;;4955887;28;20043;-78
2023/06/09 08:45:07;;;;;;;22.52;6.35;;;19.00;99.90;;;;;;4970865;28;20482;-78
2023/06/09 08:47:36;;;;;;;20.00;6.03;;;19.10;99.90;;;;;;4954968;29;20106;-78
2023/06/09 08:50:03;;;;;;;28.13;6.63;;;19.20;99.90;;;;;;4954322;29;20347;-79
2023/06/09 08:52:30;;;;;;;22.50;5.68;;;19.30;99.90;;;;;;4955350;29;20114;-79
2023/06/09 08:54:59;;;;;;;19.33;5.53;;;19.60;99.90;;;;;;4956083;28;20048;-78
2023/06/09 08:57:26;;;;;;;25.70;5.63;;;19.80;99.90;;;;;;4970260;28;20423;-78
2023/06/09 08:59:53;;;;;;;15.98;5.78;;;19.70;99.90;;;;;;4954980;29;20419;-78
2023/06/09 09:02:22;;;;;;;18.67;4.90;;;19.50;99.90;;;;;;4956467;28;20118;-77
2023/06/09 09:04:49;;;;;;;20.25;5.30;;;19.60;99.90;;;;;;4959359;28;20379;-78
2023/06/09 09:07:16;;;;;;;20.00;5.85;;;19.90;99.90;;;;;;4959910;28;20425;-79
2023/06/09 09:09:43;;;;;;;19.25;6.07;;;19.90;99.90;;;;;;4956238;29;20422;-76
2023/06/09 09:12:12;;;;;;;18.58;6.07;;;19.90;99.90;;;;;;4949348;28;20047;-78
2023/06/09 09:14:40;;;;;;;19.33;5.30;;;20.10;99.90;;;;;;4959738;28;20043;-78
2023/06/09 09:17:08;;;;;;;20.02;6.25;;;20.50;99.90;;;;;;4970393;28;20045;-78
2023/06/09 09:19:35;;;;;;;19.02;5.82;;;20.50;99.90;;;;;;4958003;28;20110;-78
2023/06/09 09:22:02;;;;;;;19.48;6.57;;;20.60;99.90;;;;;;4958672;29;20442;-78
2023/06/09 09:24:30;;;;;;;20.38;5.95;;;20.60;99.90;;;;;;4973165;28;20122;-79
2023/06/09 09:26:56;;;;;;;21.77;5.85;;;20.60;99.90;;;;;;4959478;28;20071;-79
2023/06/09 09:29:23;;;;;;;19.15;6.05;;;20.70;99.90;;;;;;4958156;28;20048;-80
2023/06/09 09:31:50;;;;;;;18.67;5.75;;;20.90;99.90;;;;;;4973063;28;20054;-80
2023/06/09 09:34:18;;;;;;;20.95;6.20;;;21.10;99.90;;;;;;4959730;28;20047;-80
2023/06/09 09:36:45;;;;;;;18.55;5.20;;;21.30;99.90;;;;;;4973945;28;20442;-80
2023/06/09 09:39:12;;;;;;;20.52;6.25;;;21.40;99.90;;;;;;4973808;28;20031;-80
2023/06/09 09:41:40;;;;;;;27.45;6.10;;;21.40;99.90;;;;;;4974748;28;20110;-80
2023/06/09 09:44:07;;;;;;;19.42;6.22;;;21.50;99.90;;;;;;4973470;28;20039;-80
2023/06/09 09:46:34;;;;;;;19.45;6.30;;;21.50;99.90;;;;;;4974111;28;20043;-80
2023/06/09 09:49:01;;;;;;;23.00;6.03;;;21.50;99.90;;;;;;4959143;28;20048;-80
2023/06/09 09:51:30;;;;;;;20.13;6.05;;;21.70;99.90;;;;;;4957766;29;20051;-80
2023/06/09 09:56:27;;;;;;;20.50;6.65;;;22.10;99.90;;;;;;4974639;28;20055;-80
2023/06/09 09:58:54;;;;;;;18.33;5.80;;;22.30;99.90;;;;;;4957178;29;20558;-79
2023/06/09 10:01:21;;;;;;;19.25;5.28;;;22.40;99.90;;;;;;4957975;29;20047;-79
2023/06/09 10:03:48;;;;;;;21.50;6.78;;;22.60;99.90;;;;;;4958482;28;20054;-80
2023/06/09 10:06:16;;;;;;;18.52;5.35;;;22.70;99.90;;;;;;4973978;28;20143;-78
2023/06/09 10:08:43;;;;;;;17.55;6.07;;;22.90;99.90;;;;;;4957601;29;20047;-78
2023/06/09 10:11:10;;;;;;;19.02;6.93;;;23.00;99.90;;;;;;4958827;28;20406;-80
2023/06/09 10:13:37;;;;;;;19.30;5.78;;;23.20;99.90;;;;;;4959723;28;20043;-80
2023/06/09 10:16:08;;;;;;;18.50;6.47;;;23.40;99.90;;;;;;4973905;28;20050;-80
2023/06/09 10:18:39;;;;;;;21.75;8.00;;;24.00;99.90;;;;;;4966572;28;20563;-80
2023/06/09 10:21:06;;;;;;;23.98;7.20;;;24.90;99.90;;;;;;4942608;29;20119;-80
2023/06/09 10:23:38;;;;;;;18.77;6.95;;;24.60;99.90;;;;;;4942124;29;20051;-79
2023/06/09 10:28:52;;;;;;;20.92;7.22;;;24.20;99.90;;;;;;4958522;29;20047;-80
2023/06/09 10:31:19;;;;;;;20.75;7.72;;;24.40;99.90;;;;;;4956649;29;20079;-81
2023/06/09 10:33:46;;;;;;;24.52;8.80;;;24.40;99.90;;;;;;4957653;29;20376;-80
2023/06/09 10:36:12;;;;;;;16.58;7.97;;;24.80;99.90;;;;;;4950355;29;20478;-80
2023/06/09 10:38:39;;;;;;;22.40;8.20;;;25.00;99.90;;;;;;4957009;29;20074;-80
2023/06/09 10:41:06;;;;;;;21.63;8.27;;;24.80;99.90;;;;;;4958494;28;20040;-80
2023/06/09 10:43:33;;;;;;;28.42;8.48;;;24.90;99.90;;;;;;4957778;28;20054;-80
2023/06/09 10:46:02;;;;;;;23.73;8.85;;;25.10;99.90;;;;;;4957910;28;20051;-80
2023/06/09 10:48:29;;;;;;;25.25;8.88;;;25.00;99.90;;;;;;4973070;28;20047;-80
2023/06/09 10:50:55;;;;;;;28.65;9.65;;;25.20;99.90;;;;;;4972574;28;20051;-81
2023/06/09 10:53:22;;;;;;;21.90;7.63;;;25.20;99.90;;;;;;4973603;28;20447;-80
2023/06/09 10:55:50;;;;;;;18.55;8.05;;;25.40;99.90;;;;;;4957333;28;20047;-80
2023/06/09 10:58:17;;;;;;;20.15;8.60;;;25.50;99.90;;;;;;4973100;28;20378;-80
2023/06/09 11:00:44;;;;;;;20.52;7.20;;;25.60;99.90;;;;;;4956848;29;20054;-80
2023/06/09 11:03:16;;;;;;;20.35;8.20;;;25.90;99.90;;;;;;4956733;29;20070;-81
2023/06/09 11:05:45;;;;;;;21.02;8.13;;;26.20;99.90;;;;;;4957288;29;20135;-81
2023/06/09 11:08:12;;;;;;;23.08;8.30;;;26.50;99.90;;;;;;4972053;28;20492;-81
2023/06/09 11:10:39;;;;;;;21.13;8.70;;;26.60;99.90;;;;;;4956915;28;20146;-80
2023/06/09 11:13:08;;;;;;;22.52;8.27;;;26.70;99.90;;;;;;4973246;28;20042;-81
2023/06/09 11:15:35;;;;;;;20.25;8.13;;;27.00;99.90;;;;;;4956563;29;20071;-80
2023/06/09 11:18:02;;;;;;;22.98;8.23;;;27.00;99.90;;;;;;4956594;28;20054;-80
2023/06/09 11:20:32;;;;;;;22.88;7.85;;;27.10;99.90;;;;;;4955833;28;20035;-82
2023/06/09 11:22:59;;;;;;;20.60;7.38;;;27.40;99.90;;;;;;4953766;29;20055;-80
2023/06/09 11:25:28;;;;;;;22.73;9.02;;;27.30;99.90;;;;;;4956885;28;20545;-81
2023/06/09 11:27:58;;;;;;;23.15;8.43;;;27.50;99.90;;;;;;4957506;28;20035;-82
2023/06/09 11:30:24;;;;;;;25.63;8.18;;;27.70;99.90;;;;;;4971603;28;20055;-80
2023/06/09 11:32:51;;;;;;;26.80;8.50;;;27.80;99.90;;;;;;4956795;29;20438;-80
2023/06/09 11:35:18;;;;;;;24.38;8.10;;;28.10;99.90;;;;;;4953523;29;20047;-80
2023/06/09 11:37:45;;;;;;;19.38;8.05;;;28.30;99.90;;;;;;4944257;29;20106;-80
2023/06/09 11:40:12;;;;;;;17.35;7.97;;;28.50;99.90;;;;;;4957254;28;20043;-80
2023/06/09 11:42:38;;;;;;;21.42;8.45;;;28.30;99.90;;;;;;4937173;29;20058;-81
2023/06/09 11:45:05;;;;;;;23.60;8.95;;;28.20;99.90;;;;;;4937344;29;20063;-81
2023/06/09 11:47:32;;;;;;;24.08;8.23;;;28.30;99.90;;;;;;4938390;29;20048;-81
2023/06/09 11:49:59;;;;;;;22.63;8.10;;;28.50;99.90;;;;;;4937168;29;20040;-81
2023/06/09 11:52:26;;;;;;;20.23;7.43;;;28.90;99.90;;;;;;4936849;29;20052;-81
2023/06/09 11:57:38;;;;;;;23.77;8.23;;;28.50;99.90;;;;;;4937279;29;20099;-81
2023/06/09 12:00:18;;;;;;;25.13;8.37;;;28.50;99.90;;;;;;4921431;29;20086;-81
2023/06/09 12:02:48;;;;;;;23.30;8.27;;;28.70;99.90;;;;;;4938515;29;20054;-80
2023/06/09 12:05:19;;;;;;;21.60;8.43;;;28.80;99.90;;;;;;4971321;28;20042;-81
2023/06/09 12:07:46;;;;;;;17.15;7.30;;;28.90;99.90;;;;;;4972278;28;20497;-81
2023/06/09 12:10:17;;;;;;;19.05;7.40;;;28.80;99.90;;;;;;4954800;29;20059;-80
2023/06/09 12:12:46;;;;;;;20.55;7.75;;;29.40;99.90;;;;;;4956101;29;20102;-81
2023/06/09 12:15:12;;;;;;;17.90;7.28;;;29.60;99.90;;;;;;4955024;29;20062;-82
2023/06/09 12:17:40;;;;;;;26.38;7.82;;;29.50;99.90;;;;;;4970580;28;20055;-81
2023/06/09 12:20:08;;;;;;;24.33;7.68;;;29.30;99.90;;;;;;4970462;28;20074;-80
2023/06/09 12:22:35;;;;;;;17.92;7.60;;;29.30;99.90;;;;;;4951631;29;20036;-80
2023/06/09 12:25:02;;;;;;;26.30;8.00;;;29.50;99.90;;;;;;4951472;29;20059;-81
2023/06/09 12:27:33;;;;;;;26.17;8.32;;;29.30;99.90;;;;;;4951723;29;20043;-81
2023/06/09 12:30:00;;;;;;;21.25;8.32;;;29.40;99.90;;;;;;4935290;29;20148;-81
2023/06/09 12:32:27;;;;;;;16.70;7.13;;;29.40;99.90;;;;;;4937065;29;20374;-81
2023/06/09 12:34:54;;;;;;;18.92;7.38;;;29.80;99.80;;;;;;4936705;29;20047;-81
2023/06/09 12:37:23;;;;;;;20.75;8.07;;;29.90;99.50;;;;;;4935267;29;20051;-81
2023/06/09 12:39:50;;;;;;;19.55;7.18;;;30.00;98.00;;;;;;4951587;29;20051;-81
2023/06/09 12:42:20;;;;;;;17.20;7.20;;;29.90;98.10;;;;;;4937137;29;20040;-81
2023/06/09 12:44:49;;;;;;;22.85;7.25;;;30.10;97.70;;;;;;4935737;29;20123;-81
2023/06/09 12:47:16;;;;;;;22.70;7.85;;;30.20;97.70;;;;;;4951710;29;20047;-81
2023/06/09 12:49:44;;;;;;;20.33;7.97;;;30.40;97.30;;;;;;4951663;29;20048;-81
2023/06/09 12:52:12;;;;;;;19.73;7.50;;;30.40;96.00;;;;;;4935562;29;20075;-81
2023/06/09 12:54:40;;;;;;;20.40;7.15;;;30.20;96.10;;;;;;4935484;29;20039;-81
2023/06/09 12:57:10;;;;;;;23.50;8.05;;;30.30;96.40;;;;;;4935131;29;20095;-81
2023/06/09 12:59:47;;;;;;;18.02;7.90;;;30.20;95.30;;;;;;4934857;29;20071;-81